Погода Броневна 2 недели

Лодзинское воеводство, Польша

25 мая-07 июня
  • 25мая
    Сегодня
    +14°
    +25°
    Облачно с прояснениями
    ВремяПогодаТемператураВлажностьДавлениеВетер, м/сВероятность осадков
    02:00Ясно и безоблачно+15°C81 %749 мм3.2 м/с2 %
    05:00Практически безоблачно+14°C82 %749 мм2.6 м/с2 %
    08:00Облачно с прояснениями+19°C68 %750 мм2.2 м/с2 %
    11:00Облачно с прояснениями+23°C51 %750 мм2.6 м/с2 %
    14:00Облачно с прояснениями+23°C51 %750 мм2.8 м/с31 %
    17:00Облачно с прояснениями+23°C54 %749 мм2.3 м/с40 %
    20:00Небольшая облачность+21°C62 %749 мм2.2 м/с18 %
    23:00Ясно и безоблачно+16°C83 %750 мм2.1 м/с1 %
  • 26мая
    Воскресенье
    +13°
    +26°
    Ясно и безоблачно
    ВремяПогодаТемператураВлажностьДавлениеВетер, м/сВероятность осадков
    02:00Ясно и безоблачно+15°C89 %750 мм2.0 м/с2 %
    05:00Ясно и безоблачно+14°C90 %750 мм2.4 м/с1 %
    08:00Ясно и безоблачно+19°C71 %750 мм2.3 м/с2 %
    11:00Практически безоблачно+24°C47 %751 мм2.8 м/с2 %
    14:00Ясно и безоблачно+26°C38 %750 мм3.1 м/с2 %
    17:00Небольшая облачность, возможен дождь с грозой+25°C42 %750 мм3.0 м/с21 %
    20:00Практически безоблачно+21°C58 %750 мм2.0 м/с15 %
    23:00Ясно и безоблачно+16°C72 %750 мм1.3 м/с2 %
  • 27мая
    Понедельник
    +12°
    +27°
    Ясно и безоблачно
    ВремяПогодаТемператураВлажностьДавлениеВетер, м/сВероятность осадков
    02:00Ясно и безоблачно+14°C71 %750 мм2.3 м/с2 %
    05:00Небольшая облачность+14°C58 %750 мм3.4 м/с2 %
    08:00Ясно и безоблачно+19°C56 %750 мм2.3 м/с2 %
    11:00Ясно и безоблачно+25°C36 %751 мм3.4 м/с2 %
    14:00Ясно и безоблачно+27°C25 %750 мм4.3 м/с2 %
    17:00Ясно и безоблачно+26°C25 %749 мм4.2 м/с3 %
    20:00Ясно и безоблачно+21°C48 %748 мм2.1 м/с2 %
    23:00Ясно и безоблачно+17°C39 %749 мм3.7 м/с2 %
  • 28мая
    Вторник
    +12°
    +26°
    Облачно с прояснениями
    ВремяПогодаТемператураВлажностьДавлениеВетер, м/сВероятность осадков
    02:00Ясно и безоблачно+14°C53 %749 мм2.3 м/с2 %
    05:00Ясно и безоблачно+13°C54 %748 мм3.5 м/с2 %
    08:00Ясно и безоблачно+19°C52 %748 мм2.9 м/с2 %
    11:00Ясно и безоблачно+25°C29 %749 мм3.6 м/с2 %
    14:00Облачно с прояснениями+26°C24 %747 мм3.5 м/с2 %
    17:00Небольшая облачность+26°C25 %746 мм2.8 м/с2 %
    20:00Облачно с прояснениями+20°C53 %746 мм2.3 м/с2 %
    23:00Облачно с прояснениями+16°C54 %746 мм2.2 м/с2 %
  • 29мая
    Среда
    +11°
    +25°
    Практически безоблачно
    ВремяПогодаТемператураВлажностьДавлениеВетер, м/сВероятность осадков
    02:00Небольшая облачность+16°C50 %746 мм2.0 м/с2 %
    05:00Небольшая облачность+13°C60 %745 мм1.7 м/с2 %
    08:00Небольшая облачность+20°C54 %746 мм1.4 м/с2 %
    11:00Пасмурно, сплошная облачность+24°C36 %746 мм2.7 м/с11 %
    14:00Практически безоблачно+24°C32 %745 мм3.2 м/с26 %
    17:00Практически безоблачно+24°C32 %743 мм2.1 м/с25 %
    20:00Практически безоблачно+21°C51 %743 мм2.9 м/с15 %
    23:00Практически безоблачно+16°C69 %743 мм2.1 м/с7 %
Мы используем cookies
Соглашаюсь